Time;durP1;ratioP1;P1;durP2;ratioP2;P2;SDS_P1;SDS_P2;PMS_P1;PMS_P2;Temp;Humidity;BMP_temperature;BMP_pressure;BME280_temperature;BME280_humidity;BME280_pressure;Samples;Min_cycle;Max_cycle;Signal;HPM_P1;HPM_P2
2021/06/24 00:00:11;;;;;;;6.60;2.90;;;16.20;99.90;;;;;;5033200;28;20640;-63
2021/06/24 00:02:40;;;;;;;6.33;3.03;;;16.30;99.90;;;;;;5033830;28;20244;-63
2021/06/24 00:05:10;;;;;;;5.23;2.70;;;16.30;99.90;;;;;;5033161;28;20232;-62
2021/06/24 00:07:38;;;;;;;5.67;3.03;;;16.30;99.90;;;;;;5033351;28;20668;-63
2021/06/24 00:10:07;;;;;;;4.57;3.00;;;16.30;99.90;;;;;;5024988;28;20335;-63
2021/06/24 00:12:36;;;;;;;7.10;3.30;;;16.20;99.90;;;;;;5014055;28;20235;-63
2021/06/24 00:15:06;;;;;;;7.10;3.57;;;16.20;99.90;;;;;;5020113;28;20323;-63
2021/06/24 00:17:34;;;;;;;4.97;3.07;;;16.10;99.90;;;;;;5033339;28;20708;-63
2021/06/24 00:20:02;;;;;;;7.23;3.20;;;16.10;99.90;;;;;;5032753;28;20229;-63
2021/06/24 00:22:30;;;;;;;4.53;2.90;;;16.10;99.90;;;;;;5033387;28;20298;-63
2021/06/24 00:24:59;;;;;;;6.00;3.13;;;16.10;99.90;;;;;;5027642;28;20229;-63
2021/06/24 00:27:27;;;;;;;6.13;3.27;;;16.10;99.90;;;;;;5013592;28;20237;-63
2021/06/24 00:29:56;;;;;;;7.07;3.30;;;16.10;99.90;;;;;;5019404;28;20311;-62
2021/06/24 00:32:25;;;;;;;4.77;3.43;;;16.10;99.90;;;;;;5033153;28;20232;-62
2021/06/24 00:34:53;;;;;;;4.50;3.23;;;16.00;99.90;;;;;;5013677;28;20241;-63
2021/06/24 00:37:21;;;;;;;5.70;3.30;;;16.10;99.90;;;;;;5028953;28;20638;-63
2021/06/24 00:39:49;;;;;;;6.90;3.53;;;16.20;99.90;;;;;;5027420;28;20328;-63
2021/06/24 00:42:18;;;;;;;5.97;3.70;;;16.20;99.90;;;;;;5047602;28;20715;-64
2021/06/24 00:44:46;;;;;;;6.77;3.37;;;16.10;99.90;;;;;;5033204;28;20248;-63
2021/06/24 00:47:16;;;;;;;6.07;3.57;;;16.00;99.90;;;;;;5048247;28;20881;-62
2021/06/24 00:49:44;;;;;;;4.87;3.20;;;16.00;99.90;;;;;;5047412;28;20298;-62
2021/06/24 00:52:13;;;;;;;6.00;3.20;;;16.00;99.90;;;;;;5032902;28;20685;-63
2021/06/24 00:54:41;;;;;;;6.00;3.63;;;16.10;99.90;;;;;;5048198;28;20716;-64
2021/06/24 00:57:09;;;;;;;6.03;3.53;;;16.20;99.90;;;;;;5029330;28;20315;-63
2021/06/24 00:59:38;;;;;;;7.90;3.60;;;16.20;99.90;;;;;;5025819;28;20260;-63
2021/06/24 01:02:07;;;;;;;6.47;3.53;;;16.20;99.90;;;;;;5025472;28;20257;-62
2021/06/24 01:04:37;;;;;;;4.97;4.00;;;16.10;99.90;;;;;;5029915;28;20240;-63
2021/06/24 01:07:06;;;;;;;6.67;3.73;;;16.00;99.90;;;;;;5029863;28;20236;-62
2021/06/24 01:09:44;;;;;;;4.10;3.63;;;16.00;99.90;;;;;;5039947;28;20241;-62
2021/06/24 01:12:13;;;;;;;6.90;4.03;;;16.00;99.90;;;;;;5010287;28;20230;-63
2021/06/24 01:14:41;;;;;;;4.67;3.70;;;16.00;99.90;;;;;;5028706;28;20792;-63
2021/06/24 01:17:09;;;;;;;6.30;3.97;;;16.00;99.90;;;;;;5044260;28;20233;-63
2021/06/24 01:19:39;;;;;;;5.10;3.87;;;15.90;99.90;;;;;;5043839;28;20643;-63
2021/06/24 01:22:08;;;;;;;6.10;3.73;;;15.90;99.90;;;;;;5029797;28;20248;-63
2021/06/24 01:24:38;;;;;;;4.73;3.83;;;16.00;99.90;;;;;;5010073;28;20292;-63
2021/06/24 01:27:06;;;;;;;8.20;4.20;;;16.00;99.90;;;;;;5024402;28;20252;-62
2021/06/24 01:29:35;;;;;;;6.53;4.37;;;16.00;99.90;;;;;;5027588;28;20248;-63
2021/06/24 01:32:05;;;;;;;7.20;4.40;;;15.90;99.90;;;;;;5029627;28;20232;-63
2021/06/24 01:34:34;;;;;;;5.33;3.87;;;15.90;99.90;;;;;;5029002;28;20767;-63
2021/06/24 01:37:02;;;;;;;6.07;4.17;;;15.90;99.90;;;;;;5044479;28;20232;-63
2021/06/24 01:39:31;;;;;;;7.17;4.30;;;15.90;99.90;;;;;;5024336;28;20260;-63
2021/06/24 01:45:51;;;;;;;5.73;4.10;;;15.90;99.90;;;;;;5022259;28;20302;-63
2021/06/24 01:48:23;;;;;;;8.10;4.20;;;16.00;99.90;;;;;;5028754;28;20236;-63
2021/06/24 01:50:54;;;;;;;5.77;3.50;;;16.00;99.90;;;;;;5057263;28;20286;-63
2021/06/24 01:53:24;;;;;;;4.97;3.70;;;15.90;99.90;;;;;;5057586;28;20240;-63
2021/06/24 01:55:53;;;;;;;5.83;3.90;;;15.90;99.90;;;;;;5044213;28;20236;-61
2021/06/24 01:58:27;;;;;;;5.27;3.70;;;16.00;99.90;;;;;;5028396;28;20236;-63
2021/06/24 02:01:26;;;;;;;5.20;4.20;;;16.00;99.90;;;;;;5028263;28;20236;-63
2021/06/24 02:04:02;;;;;;;5.47;4.27;;;15.90;99.90;;;;;;5028979;28;20270;-63
2021/06/24 02:06:30;;;;;;;8.90;4.43;;;15.90;99.90;;;;;;5043521;28;20291;-63
2021/06/24 02:09:08;;;;;;;5.70;4.23;;;15.90;99.90;;;;;;5043113;28;20732;-62
2021/06/24 02:11:49;;;;;;;8.00;4.33;;;15.70;99.90;;;;;;5043047;28;20330;-63
2021/06/24 02:14:19;;;;;;;11.83;4.53;;;15.80;99.90;;;;;;5045253;28;20247;-63
2021/06/24 02:16:49;;;;;;;6.97;4.40;;;15.80;99.90;;;;;;5063417;28;20289;-63
2021/06/24 02:19:18;;;;;;;7.57;4.43;;;15.80;99.90;;;;;;5049274;28;20260;-63
2021/06/24 02:22:05;;;;;;;7.03;5.03;;;15.70;99.90;;;;;;5063482;28;20323;-63
2021/06/24 02:24:38;;;;;;;4.93;4.37;;;15.70;99.90;;;;;;5063251;28;20228;-63
2021/06/24 02:27:09;;;;;;;7.43;4.47;;;15.80;99.90;;;;;;5049726;28;20711;-63
2021/06/24 02:29:57;;;;;;;7.17;4.30;;;15.70;99.90;;;;;;5033880;28;20227;-63
2021/06/24 02:32:26;;;;;;;7.30;3.97;;;15.80;99.90;;;;;;5048204;28;20790;-63
2021/06/24 02:35:06;;;;;;;5.10;4.50;;;15.80;99.90;;;;;;5055743;28;20242;-63
2021/06/24 02:37:52;;;;;;;7.23;4.57;;;15.80;99.90;;;;;;5042584;28;20236;-63
2021/06/24 02:40:30;;;;;;;5.93;4.60;;;15.80;99.90;;;;;;5053078;28;20692;-63
2021/06/24 02:43:00;;;;;;;6.37;4.87;;;15.70;99.90;;;;;;5034849;28;20236;-62
2021/06/24 02:45:39;;;;;;;6.47;4.93;;;15.70;99.90;;;;;;5054696;28;20263;-62
2021/06/24 02:48:11;;;;;;;5.43;4.43;;;15.60;99.90;;;;;;5047577;28;20702;-63
2021/06/24 02:50:40;;;;;;;6.37;4.57;;;15.60;99.90;;;;;;5050111;28;20318;-63
2021/06/24 02:53:11;;;;;;;8.30;4.93;;;15.70;99.90;;;;;;5028198;28;20236;-63
2021/06/24 02:55:43;;;;;;;7.27;4.70;;;15.80;99.90;;;;;;5042962;28;20267;-63
2021/06/24 02:58:13;;;;;;;5.37;4.60;;;15.80;99.90;;;;;;5042697;28;20260;-63
2021/06/24 03:00:52;;;;;;;7.07;5.10;;;15.80;99.90;;;;;;5035488;28;20567;-63
2021/06/24 03:03:47;;;;;;;8.67;5.00;;;15.70;99.90;;;;;;5043332;28;20240;-63
2021/06/24 03:06:22;;;;;;;7.00;5.03;;;15.60;99.90;;;;;;5035235;28;20243;-63
2021/06/24 03:08:51;;;;;;;6.50;5.20;;;15.60;99.90;;;;;;5026960;28;20236;-63
2021/06/24 03:11:24;;;;;;;6.60;5.27;;;15.70;99.90;;;;;;5026690;28;20487;-62
2021/06/24 03:13:54;;;;;;;6.90;5.13;;;15.70;99.90;;;;;;5027878;28;20650;-64
2021/06/24 03:16:33;;;;;;;8.03;4.93;;;15.70;99.90;;;;;;5026878;28;20264;-63
2021/06/24 03:19:05;;;;;;;5.40;4.90;;;15.70;99.90;;;;;;5043119;28;20233;-64
2021/06/24 03:21:33;;;;;;;8.50;5.73;;;15.70;99.90;;;;;;5053668;28;20250;-61
2021/06/24 03:24:02;;;;;;;5.87;5.20;;;15.60;99.90;;;;;;5022770;28;20633;-63
2021/06/24 03:26:33;;;;;;;6.00;5.30;;;15.60;99.90;;;;;;5041852;28;20882;-63
2021/06/24 03:29:12;;;;;;;7.73;5.33;;;15.60;99.90;;;;;;5041600;28;20340;-63
2021/06/24 03:31:47;;;;;;;14.00;5.47;;;15.60;99.90;;;;;;5062303;28;20411;-63
2021/06/24 03:34:20;;;;;;;7.73;4.97;;;15.60;99.90;;;;;;5061728;28;20240;-63
2021/06/24 03:36:49;;;;;;;7.20;5.50;;;15.60;99.90;;;;;;5045928;28;20852;-63
2021/06/24 03:39:21;;;;;;;5.97;5.27;;;15.70;99.90;;;;;;5059608;28;20232;-63
2021/06/24 03:41:49;;;;;;;6.63;5.27;;;15.60;99.90;;;;;;5041219;28;20262;-63
2021/06/24 03:44:18;;;;;;;7.27;5.43;;;15.60;99.90;;;;;;5041006;28;20224;-63
2021/06/24 03:46:47;;;;;;;7.73;5.53;;;15.70;99.90;;;;;;5040549;28;20650;-62
2021/06/24 03:49:15;;;;;;;6.30;5.33;;;15.70;99.90;;;;;;5040866;28;20282;-63
2021/06/24 03:51:45;;;;;;;6.27;5.67;;;15.70;99.90;;;;;;5045692;28;20247;-63
2021/06/24 03:54:15;;;;;;;7.73;5.37;;;15.60;99.90;;;;;;5044578;28;20692;-63
2021/06/24 03:56:44;;;;;;;6.33;5.63;;;15.70;99.90;;;;;;5038378;28;20229;-63
2021/06/24 03:59:19;;;;;;;7.07;5.77;;;15.70;99.90;;;;;;5039869;28;20236;-63
2021/06/24 04:01:54;;;;;;;6.40;5.30;;;15.80;99.90;;;;;;5025670;28;20286;-63
2021/06/24 04:04:22;;;;;;;8.83;5.50;;;15.80;99.90;;;;;;5040705;28;20252;-61
2021/06/24 04:06:56;;;;;;;9.90;5.70;;;15.90;99.90;;;;;;5025004;28;20231;-63
2021/06/24 04:09:25;;;;;;;6.10;5.07;;;15.90;99.90;;;;;;5024676;28;20334;-63
2021/06/24 04:11:53;;;;;;;7.10;5.50;;;15.90;99.90;;;;;;5045088;28;20235;-63
2021/06/24 04:14:39;;;;;;;7.13;5.40;;;15.80;99.90;;;;;;5045341;28;20564;-63
2021/06/24 04:17:19;;;;;;;6.47;5.13;;;15.90;99.90;;;;;;5060509;28;20793;-62
2021/06/24 04:19:50;;;;;;;8.70;5.40;;;15.90;99.90;;;;;;5051438;28;20244;-63
2021/06/24 04:22:20;;;;;;;6.97;5.13;;;15.90;99.90;;;;;;5041038;28;20681;-63
2021/06/24 04:25:13;;;;;;;8.00;6.20;;;15.90;99.90;;;;;;5049226;28;20655;-62
2021/06/24 04:27:47;;;;;;;5.57;4.83;;;15.90;99.90;;;;;;5060944;28;20674;-63
2021/06/24 04:30:17;;;;;;;9.30;6.10;;;16.00;99.90;;;;;;5048698;28;20313;-62
2021/06/24 04:32:48;;;;;;;6.60;5.63;;;16.00;99.90;;;;;;5045089;28;20244;-63
2021/06/24 04:35:22;;;;;;;8.30;5.80;;;16.00;99.90;;;;;;5045092;28;20236;-63
2021/06/24 04:37:54;;;;;;;7.70;5.67;;;16.00;99.90;;;;;;5045224;28;20742;-64
2021/06/24 04:40:23;;;;;;;6.37;5.73;;;16.10;99.90;;;;;;5054637;28;20239;-64
2021/06/24 04:42:52;;;;;;;7.50;5.37;;;16.20;99.90;;;;;;5065250;28;20259;-63
2021/06/24 04:45:25;;;;;;;7.07;5.77;;;16.20;99.90;;;;;;5065367;28;20236;-62
2021/06/24 04:48:02;;;;;;;8.10;5.73;;;16.20;99.90;;;;;;5064481;28;20243;-63
2021/06/24 04:50:32;;;;;;;6.13;5.43;;;16.30;99.90;;;;;;5049127;28;20289;-62
2021/06/24 04:53:02;;;;;;;7.20;5.70;;;16.30;99.90;;;;;;5020460;28;20766;-61
2021/06/24 04:55:42;;;;;;;7.83;6.47;;;16.40;99.90;;;;;;5044928;28;20240;-63
2021/06/24 04:58:19;;;;;;;6.47;5.27;;;16.40;99.90;;;;;;5029916;28;20271;-63
2021/06/24 05:01:22;;;;;;;6.10;5.20;;;16.40;99.90;;;;;;5029317;28;20240;-63
2021/06/24 05:04:09;;;;;;;8.27;5.90;;;16.50;99.90;;;;;;5030393;28;20240;-63
2021/06/24 05:06:38;;;;;;;6.93;5.60;;;16.50;99.90;;;;;;5029239;28;20248;-63
2021/06/24 05:09:08;;;;;;;9.53;6.23;;;16.50;99.90;;;;;;5029325;28;20312;-63
2021/06/24 05:11:36;;;;;;;7.07;5.83;;;16.40;99.90;;;;;;5029174;28;20240;-63
2021/06/24 05:14:04;;;;;;;9.07;6.60;;;16.40;99.90;;;;;;5030088;28;20236;-63
2021/06/24 05:16:32;;;;;;;8.57;6.97;;;16.30;99.90;;;;;;5028841;28;20252;-63
2021/06/24 05:19:02;;;;;;;6.47;5.73;;;16.40;99.90;;;;;;5029091;28;20236;-62
2021/06/24 05:21:30;;;;;;;11.03;6.83;;;16.50;99.90;;;;;;5048248;28;20235;-63
2021/06/24 05:23:58;;;;;;;8.67;6.50;;;16.80;99.90;;;;;;5041009;28;20251;-64
2021/06/24 05:26:27;;;;;;;10.00;7.23;;;16.90;99.90;;;;;;5047479;28;20232;-64
2021/06/24 05:28:56;;;;;;;8.83;6.23;;;17.00;99.90;;;;;;5063849;28;20324;-63
2021/06/24 05:31:24;;;;;;;7.00;5.70;;;17.10;99.90;;;;;;5048594;28;20242;-62
2021/06/24 05:33:52;;;;;;;6.90;6.20;;;17.10;99.90;;;;;;5049725;28;20289;-63
2021/06/24 05:36:20;;;;;;;6.90;6.20;;;17.20;99.90;;;;;;5032861;28;20287;-64
2021/06/24 05:38:48;;;;;;;9.13;5.77;;;17.40;99.90;;;;;;5028547;28;20327;-64
2021/06/24 05:41:17;;;;;;;9.07;5.20;;;17.40;99.90;;;;;;5026167;28;20234;-63
2021/06/24 05:43:46;;;;;;;7.90;4.53;;;17.50;99.90;;;;;;5028271;28;20240;-63
2021/06/24 05:46:14;;;;;;;8.13;4.83;;;17.60;99.90;;;;;;5027345;28;20246;-64
2021/06/24 05:48:43;;;;;;;8.17;4.07;;;17.90;99.90;;;;;;5028697;28;20624;-64
2021/06/24 05:51:11;;;;;;;5.43;3.73;;;18.10;99.90;;;;;;5027841;28;20257;-63
2021/06/24 05:53:40;;;;;;;6.57;3.30;;;18.20;99.90;;;;;;5028843;28;20340;-64
2021/06/24 05:56:08;;;;;;;6.90;3.50;;;18.40;99.90;;;;;;5038046;28;20237;-63
2021/06/24 05:58:36;;;;;;;5.73;3.53;;;18.60;99.90;;;;;;5028050;28;20269;-63
2021/06/24 06:01:06;;;;;;;3.17;2.70;;;18.80;99.90;;;;;;5027573;28;20282;-64
2021/06/24 06:03:34;;;;;;;5.10;2.70;;;19.10;99.90;;;;;;5028423;28;20242;-64
2021/06/24 06:06:02;;;;;;;6.13;3.27;;;19.40;99.90;;;;;;5030618;28;20239;-64
2021/06/24 06:08:30;;;;;;;6.20;2.60;;;19.50;99.90;;;;;;5028212;28;20230;-63
2021/06/24 06:10:59;;;;;;;5.57;3.10;;;19.60;99.90;;;;;;5027602;28;20641;-63
2021/06/24 06:13:27;;;;;;;5.07;3.10;;;19.80;99.90;;;;;;5028305;28;20263;-64
2021/06/24 06:15:55;;;;;;;6.67;3.07;;;19.70;99.90;;;;;;5027702;28;20267;-63
2021/06/24 06:18:27;;;;;;;5.63;2.80;;;19.70;99.90;;;;;;5027704;28;20235;-63
2021/06/24 06:20:57;;;;;;;7.80;2.90;;;19.60;99.90;;;;;;5027000;28;20238;-63
2021/06/24 06:23:28;;;;;;;5.37;2.80;;;19.70;99.90;;;;;;5028043;28;20249;-64
2021/06/24 06:25:56;;;;;;;5.67;2.97;;;20.00;99.90;;;;;;5039274;28;20672;-63
2021/06/24 06:28:26;;;;;;;4.20;2.53;;;20.10;99.90;;;;;;5007763;28;20239;-64
2021/06/24 06:30:58;;;;;;;4.10;2.47;;;20.40;99.90;;;;;;5022193;28;20242;-64
2021/06/24 06:33:31;;;;;;;3.63;2.20;;;20.50;99.90;;;;;;5025585;28;20331;-65
2021/06/24 06:35:59;;;;;;;5.47;2.73;;;20.80;99.90;;;;;;5024291;28;20260;-64
2021/06/24 06:38:28;;;;;;;4.43;2.43;;;21.00;99.90;;;;;;5025309;28;20785;-64
2021/06/24 06:40:57;;;;;;;3.40;2.20;;;21.20;99.90;;;;;;5025176;28;20239;-65
2021/06/24 06:43:26;;;;;;;3.43;2.20;;;21.30;99.90;;;;;;5021750;28;20674;-64
2021/06/24 06:45:54;;;;;;;5.07;2.33;;;21.40;99.90;;;;;;5025296;28;20263;-64
2021/06/24 06:48:23;;;;;;;2.83;2.40;;;21.40;99.90;;;;;;5025777;28;20536;-65
2021/06/24 06:50:52;;;;;;;3.57;2.17;;;21.30;99.90;;;;;;5026903;28;20789;-63
2021/06/24 06:53:24;;;;;;;4.47;2.30;;;21.30;99.90;;;;;;5027066;28;20240;-64
2021/06/24 06:55:52;;;;;;;3.60;2.00;;;21.60;99.90;;;;;;5037993;28;20240;-65
2021/06/24 06:58:20;;;;;;;4.23;2.20;;;21.80;99.90;;;;;;5026805;28;20322;-65
2021/06/24 07:00:49;;;;;;;3.40;2.23;;;22.00;99.90;;;;;;5045343;28;20294;-65
2021/06/24 07:03:17;;;;;;;4.73;2.20;;;22.00;99.90;;;;;;5027555;28;20237;-64
2021/06/24 07:05:45;;;;;;;3.87;1.90;;;22.00;99.90;;;;;;5026958;28;20248;-64
2021/06/24 07:08:15;;;;;;;4.70;2.27;;;22.10;99.90;;;;;;5007246;28;20763;-65
2021/06/24 07:10:43;;;;;;;5.53;2.40;;;22.40;99.90;;;;;;5020403;28;20648;-64
2021/06/24 07:13:11;;;;;;;4.73;2.20;;;22.50;99.90;;;;;;5027141;28;20330;-65
2021/06/24 07:15:40;;;;;;;4.57;2.20;;;22.60;99.90;;;;;;5027361;28;20251;-65
2021/06/24 07:18:12;;;;;;;4.43;2.27;;;22.80;99.90;;;;;;5026941;28;20256;-65
2021/06/24 07:20:42;;;;;;;3.60;1.90;;;22.80;99.90;;;;;;5026454;28;20244;-65
2021/06/24 07:23:10;;;;;;;3.63;2.00;;;23.10;99.90;;;;;;5027680;28;20256;-64
2021/06/24 07:25:40;;;;;;;4.43;2.00;;;23.30;99.90;;;;;;5037285;28;20761;-65
2021/06/24 07:28:08;;;;;;;4.87;1.90;;;23.40;99.90;;;;;;5039580;28;20239;-65
2021/06/24 07:30:36;;;;;;;3.87;2.20;;;23.50;99.90;;;;;;5028316;28;20239;-65
2021/06/24 07:33:05;;;;;;;3.83;2.37;;;23.60;99.90;;;;;;5027634;28;20232;-65
2021/06/24 07:35:33;;;;;;;4.17;2.03;;;23.40;99.90;;;;;;5038217;28;20266;-65
2021/06/24 07:38:02;;;;;;;4.33;2.20;;;23.70;99.90;;;;;;5046156;28;20231;-65
2021/06/24 07:40:30;;;;;;;5.80;2.10;;;23.70;99.90;;;;;;5035538;28;20767;-65
2021/06/24 07:43:00;;;;;;;4.03;2.37;;;23.90;99.90;;;;;;5026808;28;20714;-65
2021/06/24 07:45:28;;;;;;;4.80;2.43;;;24.10;99.90;;;;;;5031700;28;20286;-64
2021/06/24 07:47:58;;;;;;;2.37;1.90;;;24.20;99.90;;;;;;5025637;28;20298;-65
2021/06/24 07:50:26;;;;;;;2.93;2.10;;;24.40;99.90;;;;;;5025795;28;20299;-64
2021/06/24 07:52:56;;;;;;;4.10;2.07;;;24.40;99.90;;;;;;5026717;28;20243;-64
2021/06/24 07:55:33;;;;;;;4.07;2.20;;;24.30;99.90;;;;;;5025232;28;20241;-64
2021/06/24 07:58:03;;;;;;;3.17;1.93;;;24.10;99.90;;;;;;5023053;28;20243;-64
2021/06/24 08:00:32;;;;;;;3.10;2.00;;;23.90;99.90;;;;;;5034904;28;20309;-62
2021/06/24 08:03:01;;;;;;;3.30;1.97;;;23.60;99.90;;;;;;5054492;28;20441;-65
2021/06/24 08:05:32;;;;;;;3.70;2.10;;;23.40;99.90;;;;;;5040814;28;20239;-66
2021/06/24 08:08:01;;;;;;;2.70;1.80;;;23.10;99.90;;;;;;5030673;28;20244;-65
2021/06/24 08:10:29;;;;;;;4.60;2.20;;;22.90;99.90;;;;;;5030456;28;20232;-64
2021/06/24 08:12:57;;;;;;;5.43;2.50;;;22.80;99.90;;;;;;5031169;28;20263;-66
2021/06/24 08:15:28;;;;;;;3.60;2.50;;;22.40;99.90;;;;;;5029920;28;20232;-64
2021/06/24 08:17:57;;;;;;;3.23;2.07;;;22.30;99.90;;;;;;5030389;28;20247;-65
2021/06/24 08:20:25;;;;;;;3.97;2.27;;;22.30;99.90;;;;;;5027430;28;20315;-65
2021/06/24 08:22:55;;;;;;;3.27;2.17;;;22.30;99.90;;;;;;5031046;28;20244;-65
2021/06/24 08:25:24;;;;;;;5.63;2.53;;;22.40;99.90;;;;;;5032826;28;20338;-64
2021/06/24 08:27:53;;;;;;;4.27;2.47;;;22.40;99.90;;;;;;5030039;28;20240;-64
2021/06/24 08:30:22;;;;;;;3.33;2.50;;;22.30;99.90;;;;;;5029961;28;20233;-64
2021/06/24 08:32:52;;;;;;;3.33;2.23;;;22.30;99.90;;;;;;5031110;28;20315;-65
2021/06/24 08:35:20;;;;;;;3.63;2.40;;;22.20;99.90;;;;;;5032333;28;20240;-63
2021/06/24 08:37:48;;;;;;;4.27;2.60;;;22.20;99.90;;;;;;5029644;28;20290;-64
2021/06/24 08:40:17;;;;;;;3.37;1.83;;;22.20;99.90;;;;;;5029135;28;20704;-64
2021/06/24 08:42:47;;;;;;;7.17;2.80;;;22.20;99.90;;;;;;5029911;28;20236;-65
2021/06/24 08:45:16;;;;;;;4.53;2.33;;;22.20;99.90;;;;;;5027713;28;20254;-64
2021/06/24 08:47:47;;;;;;;2.83;2.20;;;22.20;99.90;;;;;;5026993;28;20241;-63
2021/06/24 08:50:17;;;;;;;3.40;2.00;;;22.20;99.90;;;;;;5027781;28;20799;-65
2021/06/24 08:52:49;;;;;;;4.03;2.30;;;22.00;99.90;;;;;;5027544;28;20243;-65
2021/06/24 08:55:18;;;;;;;4.67;2.23;;;22.10;99.90;;;;;;5027399;28;20580;-65
2021/06/24 08:57:47;;;;;;;2.73;2.13;;;22.20;99.90;;;;;;5026905;28;20247;-63
2021/06/24 09:00:16;;;;;;;3.30;2.10;;;22.20;99.90;;;;;;5030069;28;20236;-65
2021/06/24 09:02:46;;;;;;;3.13;2.10;;;22.20;99.90;;;;;;5027200;28;20249;-63
2021/06/24 09:05:16;;;;;;;2.57;2.10;;;22.20;99.90;;;;;;5035575;28;20731;-65
2021/06/24 09:07:50;;;;;;;3.67;2.00;;;22.20;99.90;;;;;;5046594;28;20646;-65
2021/06/24 09:10:19;;;;;;;3.90;2.50;;;22.20;99.90;;;;;;5037414;28;20291;-62
2021/06/24 09:12:54;;;;;;;4.27;2.43;;;22.30;99.90;;;;;;5027145;28;20250;-65
2021/06/24 09:15:26;;;;;;;3.90;2.53;;;22.30;99.90;;;;;;5027113;28;20323;-65
2021/06/24 09:17:54;;;;;;;2.63;2.20;;;22.30;99.90;;;;;;5025727;28;20228;-63
2021/06/24 09:20:35;;;;;;;2.73;2.40;;;22.30;99.90;;;;;;5028921;28;20241;-64
2021/06/24 09:23:09;;;;;;;4.07;2.73;;;22.40;99.90;;;;;;5026542;28;20247;-62
2021/06/24 09:25:39;;;;;;;4.50;2.47;;;22.20;99.90;;;;;;5037689;28;20244;-65
2021/06/24 09:28:07;;;;;;;3.70;2.40;;;22.20;99.90;;;;;;5046576;28;20414;-65
2021/06/24 09:30:37;;;;;;;4.93;2.00;;;22.10;99.90;;;;;;5045725;28;20715;-65
2021/06/24 09:33:10;;;;;;;4.27;2.77;;;22.10;99.90;;;;;;5046440;28;20770;-64
2021/06/24 09:35:41;;;;;;;5.43;2.53;;;21.90;99.90;;;;;;5046087;28;20715;-65
2021/06/24 09:38:13;;;;;;;2.40;1.87;;;22.00;99.90;;;;;;5029279;28;20233;-65
2021/06/24 09:40:45;;;;;;;2.73;2.13;;;22.00;99.90;;;;;;5037990;28;20338;-64
2021/06/24 09:43:34;;;;;;;3.40;2.33;;;22.00;99.90;;;;;;5046698;28;20297;-65
2021/06/24 09:46:08;;;;;;;4.67;2.80;;;22.00;99.90;;;;;;5046047;28;20293;-64
2021/06/24 09:48:38;;;;;;;4.23;2.40;;;21.90;99.90;;;;;;5060761;28;20243;-65
2021/06/24 09:51:16;;;;;;;4.00;2.47;;;21.90;99.90;;;;;;5029806;28;20704;-65
2021/06/24 09:53:50;;;;;;;6.33;2.60;;;21.80;99.90;;;;;;5026669;28;20240;-64
2021/06/24 09:56:31;;;;;;;3.60;2.30;;;21.60;99.90;;;;;;5026258;28;20240;-65
2021/06/24 09:59:04;;;;;;;3.37;2.23;;;21.50;99.90;;;;;;5026179;28;20247;-64
2021/06/24 10:01:35;;;;;;;4.80;2.47;;;21.50;99.90;;;;;;5044792;28;20293;-65
2021/06/24 10:04:05;;;;;;;3.60;2.30;;;21.60;99.90;;;;;;5046089;28;20797;-64
2021/06/24 10:06:35;;;;;;;5.47;2.37;;;21.70;99.90;;;;;;5026388;28;20252;-65
2021/06/24 10:09:07;;;;;;;3.73;1.90;;;21.80;99.90;;;;;;5011061;28;20239;-65
2021/06/24 10:11:35;;;;;;;4.43;2.70;;;21.80;99.90;;;;;;5020044;28;20240;-64
2021/06/24 10:14:05;;;;;;;6.37;2.40;;;21.60;99.90;;;;;;5021638;28;20249;-63
2021/06/24 10:16:33;;;;;;;4.97;2.30;;;21.60;99.90;;;;;;5026065;28;20248;-62
2021/06/24 10:19:02;;;;;;;5.43;2.30;;;21.70;99.90;;;;;;5012135;28;20567;-63
2021/06/24 10:21:34;;;;;;;4.33;2.23;;;21.90;99.90;;;;;;5010750;28;20252;-63
2021/06/24 10:24:09;;;;;;;3.73;2.27;;;22.00;99.90;;;;;;5011531;28;20248;-63
2021/06/24 10:26:40;;;;;;;4.73;2.43;;;22.10;99.90;;;;;;5009428;28;20247;-62
2021/06/24 10:29:14;;;;;;;4.83;2.30;;;22.20;99.90;;;;;;5010017;28;20228;-64
2021/06/24 10:31:44;;;;;;;4.67;2.30;;;22.20;99.90;;;;;;5022764;28;20232;-63
2021/06/24 10:34:13;;;;;;;3.67;2.10;;;22.40;99.90;;;;;;5011963;28;20247;-62
2021/06/24 10:37:01;;;;;;;3.03;2.23;;;22.80;99.90;;;;;;5008135;28;20264;-65
2021/06/24 10:39:37;;;;;;;4.80;2.60;;;23.00;99.90;;;;;;5025534;28;20245;-61
2021/06/24 10:42:09;;;;;;;4.47;2.73;;;23.10;99.90;;;;;;5011554;28;20333;-63
2021/06/24 10:44:47;;;;;;;4.23;3.20;;;23.20;99.90;;;;;;5007741;28;20315;-64
2021/06/24 10:47:30;;;;;;;4.80;2.50;;;23.10;99.90;;;;;;5037513;28;20780;-63
2021/06/24 10:50:41;;;;;;;4.23;2.67;;;23.00;99.90;;;;;;5008891;28;20240;-62
2021/06/24 10:53:49;;;;;;;3.63;2.70;;;22.90;99.90;;;;;;5009124;28;20321;-62
2021/06/24 10:56:49;;;;;;;7.03;3.00;;;23.00;99.90;;;;;;5024044;28;20743;-61
2021/06/24 10:59:26;;;;;;;6.70;4.03;;;23.10;99.90;;;;;;5021490;28;20635;-64
2021/06/24 11:02:05;;;;;;;3.87;3.00;;;23.00;99.90;;;;;;5021751;28;20236;-63
2021/06/24 11:04:37;;;;;;;6.03;3.43;;;22.90;99.90;;;;;;5021547;28;20319;-63
2021/06/24 11:07:24;;;;;;;5.87;3.23;;;22.70;99.90;;;;;;5025089;28;20763;-62
2021/06/24 11:10:15;;;;;;;5.27;3.50;;;22.70;99.90;;;;;;5018884;28;20247;-64
2021/06/24 11:13:08;;;;;;;4.83;3.90;;;22.70;99.90;;;;;;5044111;28;20247;-63
2021/06/24 11:15:54;;;;;;;4.93;3.17;;;22.40;99.90;;;;;;5031059;28;20589;-65
2021/06/24 11:18:46;;;;;;;5.80;4.00;;;22.40;99.90;;;;;;5022320;28;20236;-65
2021/06/24 11:21:19;;;;;;;5.40;3.23;;;22.40;99.90;;;;;;5015856;28;20244;-65
2021/06/24 11:23:49;;;;;;;4.63;2.97;;;22.40;99.90;;;;;;5022146;28;20286;-64
2021/06/24 11:26:20;;;;;;;5.30;3.17;;;22.60;99.90;;;;;;5024788;28;20239;-64
2021/06/24 11:28:52;;;;;;;4.13;3.73;;;22.70;99.90;;;;;;5021757;28;20233;-64
2021/06/24 11:31:30;;;;;;;4.90;3.27;;;22.70;99.90;;;;;;5039265;28;20236;-62
2021/06/24 11:34:02;;;;;;;5.90;3.10;;;23.00;99.90;;;;;;5024241;28;20240;-64
2021/06/24 11:36:30;;;;;;;4.63;3.40;;;23.00;99.90;;;;;;5023237;28;20245;-64
2021/06/24 11:38:58;;;;;;;4.93;3.17;;;23.00;99.90;;;;;;5023537;28;20258;-63
2021/06/24 11:41:26;;;;;;;4.70;3.53;;;22.90;99.90;;;;;;5020762;28;20287;-63
2021/06/24 11:44:00;;;;;;;4.73;3.10;;;22.90;99.90;;;;;;5021848;28;20829;-63
2021/06/24 11:46:31;;;;;;;5.37;3.80;;;23.00;99.90;;;;;;5030272;28;20239;-62
2021/06/24 11:49:12;;;;;;;5.97;3.23;;;23.10;99.90;;;;;;5025873;28;20247;-65
2021/06/24 12:00:31;;;;;;;5.00;3.50;;;23.20;99.90;;;;;;5026340;28;20755;-64
2021/06/24 12:03:07;;;;;;;4.33;2.70;;;23.10;99.90;;;;;;5020627;28;20240;-65
2021/06/24 12:05:38;;;;;;;6.20;2.93;;;23.00;99.90;;;;;;5019604;28;20244;-64
2021/06/24 12:08:06;;;;;;;5.10;3.40;;;23.30;99.90;;;;;;5020159;28;20240;-62
2021/06/24 12:10:34;;;;;;;5.47;3.63;;;23.50;99.90;;;;;;5022329;28;20245;-65
2021/06/24 12:13:03;;;;;;;6.53;3.47;;;23.60;99.90;;;;;;5022175;28;20329;-64
2021/06/24 12:15:34;;;;;;;5.13;3.40;;;23.50;99.90;;;;;;5033145;28;20255;-65
2021/06/24 12:18:02;;;;;;;5.37;3.13;;;23.30;99.90;;;;;;5042430;28;20323;-65
2021/06/24 12:20:30;;;;;;;4.07;3.30;;;23.20;99.90;;;;;;5028389;28;20240;-65
2021/06/24 12:23:19;;;;;;;5.40;3.03;;;23.00;99.90;;;;;;5023892;28;20324;-62
2021/06/24 12:25:47;;;;;;;7.73;3.57;;;22.90;99.90;;;;;;5022652;28;20324;-64
2021/06/24 12:28:15;;;;;;;5.80;3.37;;;22.90;99.90;;;;;;5022690;28;20245;-65
2021/06/24 12:30:45;;;;;;;5.70;3.80;;;22.70;99.90;;;;;;5034341;28;20252;-64
2021/06/24 12:33:15;;;;;;;4.00;3.03;;;22.40;99.90;;;;;;5021967;28;20323;-65
2021/06/24 12:35:47;;;;;;;4.87;3.20;;;22.20;99.90;;;;;;5039012;28;20248;-63
2021/06/24 12:38:18;;;;;;;4.53;3.30;;;22.30;99.90;;;;;;5021737;28;20233;-64
2021/06/24 12:40:49;;;;;;;6.90;3.37;;;22.30;99.90;;;;;;5021403;28;20236;-64
2021/06/24 12:43:19;;;;;;;6.27;3.30;;;22.40;99.90;;;;;;5022201;28;20704;-65
2021/06/24 12:45:52;;;;;;;7.80;4.10;;;22.50;99.90;;;;;;5032361;28;20331;-63
2021/06/24 12:48:42;;;;;;;5.77;3.23;;;22.70;99.90;;;;;;5057260;28;20583;-65
2021/06/24 12:51:24;;;;;;;8.93;3.60;;;22.90;99.90;;;;;;5024113;28;20643;-64
2021/06/24 12:53:54;;;;;;;4.63;2.80;;;22.80;99.90;;;;;;5026268;28;20294;-64
2021/06/24 12:56:24;;;;;;;4.80;3.00;;;22.90;99.90;;;;;;5021879;28;20302;-64
2021/06/24 12:58:55;;;;;;;4.53;3.03;;;23.10;99.90;;;;;;5034154;28;20244;-64
2021/06/24 13:01:25;;;;;;;6.73;2.90;;;23.20;99.90;;;;;;5025231;28;20343;-65
2021/06/24 13:03:54;;;;;;;6.87;2.87;;;23.10;99.90;;;;;;5025498;28;20661;-64
2021/06/24 13:06:28;;;;;;;6.80;3.27;;;23.00;99.90;;;;;;5025363;28;20646;-65
2021/06/24 13:09:05;;;;;;;5.90;2.67;;;23.10;99.90;;;;;;5025262;28;20299;-64
2021/06/24 13:11:35;;;;;;;5.87;3.13;;;23.10;99.90;;;;;;5025268;28;20248;-65
2021/06/24 13:14:12;;;;;;;5.17;2.83;;;23.00;99.90;;;;;;5023245;28;20260;-64
2021/06/24 13:16:49;;;;;;;6.43;3.00;;;22.90;99.90;;;;;;5023354;28;20244;-64
2021/06/24 13:19:24;;;;;;;3.87;2.57;;;22.80;99.90;;;;;;5030091;28;20242;-65
2021/06/24 13:21:55;;;;;;;5.33;3.40;;;22.90;99.90;;;;;;5046440;28;20262;-64